Terminal Aerodrome Forecast
Issued by NWS Salt Lake City, UT

Home | Current Version | Previous Version | Text Only | Print | Product List | Glossary On
Versions: 1 2 3 4 5 6 7 8 9 10 11 12 13 14 15 16 17 18 19 20 21 22 23 24 25 26 27 28 29 30 31 32 33 34
000
FTUS45 KSLC 110522
TAFSLC
TAF
KSLC 110522Z 1106/1212 02006KT P6SM -RASN BKN008
     FM110800 32006KT 4SM -SHRASN SCT020 OVC030
     FM111200 17006KT P6SM VCSH SCT030 BKN050
     FM111600 17009KT P6SM SCT060=

USA.gov is the U.S. government's official web portal to all federal, state and local government web resources and services.